Ginga — JJ4054 — position and weather

sailwx.info

Track history (hours):
 
Tides and Currents Weather Stations Pressure Air Temp Water Temp Dewpoint Dewpoint Depression Visibility Wind Speed Wind Dir Waves Ship Positions

Ginga

Last reported at 2015-Sep-03 07:33 UTC. Time now 2015-Sep-04 12:23 UTC.
Position N 34°36' E 135°08'.

Length 28 m; draft 1.6 m.

Type: Other ship. MMSI: 431301704.

Date/timePositionNaut miles runAvg speedWind from/ knotsBaromVisibWave heightAir tempDewpointWater temp
2015-Sep-03 07:33N 34°36' E 135°08'9 8.4
2015-Sep-03 06:30N 34°36' E 134°57'5 5.1
2015-Sep-03 05:32N 34°36' E 135°03'4 4.2
2015-Sep-03 04:32N 34°38' E 134°58'4 0.5
2015-Sep-02 20:25N 34°37' E 135°03'2 2.3
2015-Sep-02 19:28N 34°38' E 135°01'6 6.8
2015-Sep-02 18:33N 34°35' E 135°07'4 4.3
2015-Sep-02 17:33N 34°39' E 135°09'1 0.1
2015-Sep-02 02:33N 34°39' E 135°11'7 6.6
2015-Sep-02 01:33N 34°37' E 135°04'1 0.8
2015-Sep-02 00:33N 34°36' E 135°03'6 5.9
2015-Sep-01 23:33N 34°39' E 135°10'5 1.8
2015-Sep-01 20:33N 34°37' E 135°03'1 1.2
2015-Sep-01 19:32N 34°36' E 135°04'8 8.4
2015-Sep-01 18:33N 34°34' E 135°14'6 5.8
2015-Sep-01 17:33N 34°39' E 135°09'0 0.0
2015-Aug-31 21:24N 34°39' E 135°09'1011.5
2015-Aug-31 20:34N 34°38' E 134°58'6 6.5
2015-Aug-31 19:33N 34°35' E 135°05'5 5.3
2015-Aug-31 18:33N 34°39' E 135°10'3 0.3
2015-Aug-31 09:33N 34°36' E 135°08'12 5.6
2015-Aug-31 07:25N 34°26' E 135°01'911.0
2015-Aug-31 06:33N 34°35' E 135°04'25 0.8
2015-Aug-30 01:31N 34°10' E 135°00'  
2015-Aug-25 23:31N 34°37' E 134°59'9 9.3
2015-Aug-25 22:33N 34°34' E 135°09'1110.4
2015-Aug-25 21:30N 34°24' E 135°04'1312.7
2015-Aug-25 20:28N 34°11' E 134°60'8 6.5
2015-Aug-25 19:17N 34°18' E 135°04'1115.4
2015-Aug-25 18:33N 34°28' E 135°11'1313.3
2015-Aug-25 17:34N 34°41' E 135°13'1 0.0
2015-Aug-24 12:04N 34°42' E 135°14'3 5.5
2015-Aug-24 11:33N 34°40' E 135°12'1110.2
2015-Aug-24 10:28N 34°37' E 134°59'4 4.9
2015-Aug-24 09:33N 34°36' E 135°04'5 5.3
2015-Aug-24 08:33N 34°39' E 135°09'  
Track history (hours):
 
Tides and Currents Weather Stations Pressure Air Temp Water Temp Dewpoint Dewpoint Depression Visibility Wind Speed Wind Dir Waves Ship Positions

Ginga

Last reported at 2015-Sep-03 07:33 UTC. Time now 2015-Sep-04 12:23 UTC.
Position N 34°36' E 135°08'.

Length 28 m; draft 1.6 m.

Type: Other ship. MMSI: 431301704.

Date/timePositionNaut miles runAvg speedWind from/ knotsBaromVisibWave heightAir tempDewpointWater temp
2015-Sep-03 07:33N 34°36' E 135°08'9 8.4
2015-Sep-03 06:30N 34°36' E 134°57'5 5.1
2015-Sep-03 05:32N 34°36' E 135°03'4 4.2
2015-Sep-03 04:32N 34°38' E 134°58'4 0.5
2015-Sep-02 20:25N 34°37' E 135°03'2 2.3
2015-Sep-02 19:28N 34°38' E 135°01'6 6.8
2015-Sep-02 18:33N 34°35' E 135°07'4 4.3
2015-Sep-02 17:33N 34°39' E 135°09'1 0.1
2015-Sep-02 02:33N 34°39' E 135°11'7 6.6
2015-Sep-02 01:33N 34°37' E 135°04'1 0.8
2015-Sep-02 00:33N 34°36' E 135°03'6 5.9
2015-Sep-01 23:33N 34°39' E 135°10'5 1.8
2015-Sep-01 20:33N 34°37' E 135°03'1 1.2
2015-Sep-01 19:32N 34°36' E 135°04'8 8.4
2015-Sep-01 18:33N 34°34' E 135°14'6 5.8
2015-Sep-01 17:33N 34°39' E 135°09'0 0.0
2015-Aug-31 21:24N 34°39' E 135°09'1011.5
2015-Aug-31 20:34N 34°38' E 134°58'6 6.5
2015-Aug-31 19:33N 34°35' E 135°05'5 5.3
2015-Aug-31 18:33N 34°39' E 135°10'3 0.3
2015-Aug-31 09:33N 34°36' E 135°08'12 5.6
2015-Aug-31 07:25N 34°26' E 135°01'911.0
2015-Aug-31 06:33N 34°35' E 135°04'25 0.8
2015-Aug-30 01:31N 34°10' E 135°00'  
2015-Aug-25 23:31N 34°37' E 134°59'9 9.3
2015-Aug-25 22:33N 34°34' E 135°09'1110.4
2015-Aug-25 21:30N 34°24' E 135°04'1312.7
2015-Aug-25 20:28N 34°11' E 134°60'8 6.5
2015-Aug-25 19:17N 34°18' E 135°04'1115.4
2015-Aug-25 18:33N 34°28' E 135°11'1313.3
2015-Aug-25 17:34N 34°41' E 135°13'1 0.0
2015-Aug-24 12:04N 34°42' E 135°14'3 5.5
2015-Aug-24 11:33N 34°40' E 135°12'1110.2
2015-Aug-24 10:28N 34°37' E 134°59'4 4.9
2015-Aug-24 09:33N 34°36' E 135°04'5 5.3
2015-Aug-24 08:33N 34°39' E 135°09'  

Dump ship's entire track history